sensor_id;sensor_type;location;lat;lon;timestamp;P1;durP1;ratioP1;P2;durP2;ratioP2
43650;SDS011;29247;50.944;5.382;2023-04-25T00:02:22;7.85;;;2.20;;
43650;SDS011;29247;50.944;5.382;2023-04-25T00:04:50;10.02;;;2.30;;
43650;SDS011;29247;50.944;5.382;2023-04-25T00:07:16;8.65;;;2.70;;
43650;SDS011;29247;50.944;5.382;2023-04-25T00:09:45;8.55;;;2.95;;
43650;SDS011;29247;50.944;5.382;2023-04-25T00:12:11;7.15;;;2.70;;
43650;SDS011;29247;50.944;5.382;2023-04-25T00:14:37;10.52;;;2.53;;
43650;SDS011;29247;50.944;5.382;2023-04-25T00:17:03;10.95;;;2.92;;
43650;SDS011;29247;50.944;5.382;2023-04-25T00:19:31;10.45;;;2.45;;
43650;SDS011;29247;50.944;5.382;2023-04-25T00:21:58;6.90;;;2.80;;
43650;SDS011;29247;50.944;5.382;2023-04-25T00:24:24;6.93;;;2.40;;
43650;SDS011;29247;50.944;5.382;2023-04-25T00:26:52;16.73;;;3.05;;
43650;SDS011;29247;50.944;5.382;2023-04-25T00:29:18;13.30;;;3.33;;
43650;SDS011;29247;50.944;5.382;2023-04-25T00:31:44;9.00;;;3.25;;
43650;SDS011;29247;50.944;5.382;2023-04-25T00:34:12;14.82;;;3.45;;
43650;SDS011;29247;50.944;5.382;2023-04-25T00:36:37;15.90;;;3.13;;
43650;SDS011;29247;50.944;5.382;2023-04-25T00:39:03;13.98;;;2.60;;
43650;SDS011;29247;50.944;5.382;2023-04-25T00:41:29;9.43;;;2.70;;
43650;SDS011;29247;50.944;5.382;2023-04-25T00:43:57;10.43;;;2.67;;
43650;SDS011;29247;50.944;5.382;2023-04-25T00:46:31;8.20;;;2.70;;
43650;SDS011;29247;50.944;5.382;2023-04-25T00:51:29;5.93;;;2.28;;
43650;SDS011;29247;50.944;5.382;2023-04-25T00:53:57;13.98;;;2.63;;
43650;SDS011;29247;50.944;5.382;2023-04-25T00:56:23;10.63;;;2.72;;
43650;SDS011;29247;50.944;5.382;2023-04-25T00:58:50;9.27;;;2.30;;
43650;SDS011;29247;50.944;5.382;2023-04-25T01:01:19;13.25;;;2.75;;
43650;SDS011;29247;50.944;5.382;2023-04-25T01:03:45;8.90;;;2.85;;
43650;SDS011;29247;50.944;5.382;2023-04-25T01:06:11;9.88;;;3.42;;
43650;SDS011;29247;50.944;5.382;2023-04-25T01:08:37;10.38;;;2.30;;
43650;SDS011;29247;50.944;5.382;2023-04-25T01:11:06;9.32;;;2.97;;
43650;SDS011;29247;50.944;5.382;2023-04-25T01:13:34;9.60;;;2.90;;
43650;SDS011;29247;50.944;5.382;2023-04-25T01:16:01;9.75;;;3.08;;
43650;SDS011;29247;50.944;5.382;2023-04-25T01:18:27;11.55;;;2.42;;
43650;SDS011;29247;50.944;5.382;2023-04-25T01:21:11;9.00;;;3.17;;
43650;SDS011;29247;50.944;5.382;2023-04-25T01:23:38;10.52;;;2.85;;
43650;SDS011;29247;50.944;5.382;2023-04-25T01:26:09;10.45;;;2.60;;
43650;SDS011;29247;50.944;5.382;2023-04-25T01:28:35;11.83;;;2.73;;
43650;SDS011;29247;50.944;5.382;2023-04-25T01:31:04;9.98;;;2.78;;
43650;SDS011;29247;50.944;5.382;2023-04-25T01:36:01;11.45;;;2.35;;
43650;SDS011;29247;50.944;5.382;2023-04-25T01:38:26;11.18;;;2.83;;
43650;SDS011;29247;50.944;5.382;2023-04-25T01:40:55;12.85;;;3.08;;
43650;SDS011;29247;50.944;5.382;2023-04-25T01:43:21;10.05;;;2.42;;
43650;SDS011;29247;50.944;5.382;2023-04-25T01:45:47;14.75;;;2.80;;
43650;SDS011;29247;50.944;5.382;2023-04-25T01:48:17;7.88;;;2.28;;
43650;SDS011;29247;50.944;5.382;2023-04-25T01:50:43;7.57;;;2.22;;
43650;SDS011;29247;50.944;5.382;2023-04-25T01:53:13;10.40;;;2.40;;
43650;SDS011;29247;50.944;5.382;2023-04-25T01:55:42;16.42;;;3.08;;
43650;SDS011;29247;50.944;5.382;2023-04-25T01:58:08;8.48;;;2.70;;
43650;SDS011;29247;50.944;5.382;2023-04-25T02:00:38;10.65;;;2.63;;
43650;SDS011;29247;50.944;5.382;2023-04-25T02:03:06;14.60;;;2.83;;
43650;SDS011;29247;50.944;5.382;2023-04-25T02:05:36;11.60;;;3.17;;
43650;SDS011;29247;50.944;5.382;2023-04-25T02:08:05;9.25;;;2.13;;
43650;SDS011;29247;50.944;5.382;2023-04-25T02:10:34;7.43;;;2.20;;
43650;SDS011;29247;50.944;5.382;2023-04-25T02:13:01;10.95;;;2.10;;
43650;SDS011;29247;50.944;5.382;2023-04-25T02:15:27;13.05;;;2.85;;
43650;SDS011;29247;50.944;5.382;2023-04-25T02:17:53;12.23;;;2.80;;
43650;SDS011;29247;50.944;5.382;2023-04-25T02:20:20;7.90;;;2.60;;
43650;SDS011;29247;50.944;5.382;2023-04-25T02:22:51;8.35;;;2.58;;
43650;SDS011;29247;50.944;5.382;2023-04-25T02:25:20;15.25;;;4.07;;
43650;SDS011;29247;50.944;5.382;2023-04-25T02:27:48;7.97;;;1.98;;
43650;SDS011;29247;50.944;5.382;2023-04-25T02:30:16;10.23;;;2.33;;
43650;SDS011;29247;50.944;5.382;2023-04-25T02:32:42;7.20;;;2.90;;
43650;SDS011;29247;50.944;5.382;2023-04-25T02:35:11;8.90;;;2.08;;
43650;SDS011;29247;50.944;5.382;2023-04-25T02:37:37;12.15;;;2.10;;
43650;SDS011;29247;50.944;5.382;2023-04-25T02:40:06;5.75;;;2.10;;
43650;SDS011;29247;50.944;5.382;2023-04-25T02:42:35;10.05;;;2.25;;
43650;SDS011;29247;50.944;5.382;2023-04-25T02:45:01;6.90;;;2.60;;
43650;SDS011;29247;50.944;5.382;2023-04-25T02:47:27;9.77;;;2.65;;
43650;SDS011;29247;50.944;5.382;2023-04-25T02:49:53;7.15;;;2.45;;
43650;SDS011;29247;50.944;5.382;2023-04-25T02:52:18;8.88;;;2.05;;
43650;SDS011;29247;50.944;5.382;2023-04-25T02:54:46;12.48;;;2.83;;
43650;SDS011;29247;50.944;5.382;2023-04-25T02:57:12;7.72;;;2.17;;
43650;SDS011;29247;50.944;5.382;2023-04-25T02:59:40;9.32;;;2.30;;
43650;SDS011;29247;50.944;5.382;2023-04-25T03:02:08;7.03;;;2.20;;
43650;SDS011;29247;50.944;5.382;2023-04-25T03:04:34;8.73;;;2.42;;
43650;SDS011;29247;50.944;5.382;2023-04-25T03:07:00;11.80;;;3.10;;
43650;SDS011;29247;50.944;5.382;2023-04-25T03:09:28;11.13;;;2.65;;
43650;SDS011;29247;50.944;5.382;2023-04-25T03:11:54;10.80;;;3.08;;
43650;SDS011;29247;50.944;5.382;2023-04-25T03:14:24;9.52;;;3.05;;
43650;SDS011;29247;50.944;5.382;2023-04-25T03:16:50;9.48;;;2.45;;
43650;SDS011;29247;50.944;5.382;2023-04-25T03:19:18;7.40;;;2.42;;
43650;SDS011;29247;50.944;5.382;2023-04-25T03:21:51;9.38;;;2.83;;
43650;SDS011;29247;50.944;5.382;2023-04-25T03:24:19;8.23;;;2.17;;
43650;SDS011;29247;50.944;5.382;2023-04-25T03:26:48;8.85;;;2.72;;
43650;SDS011;29247;50.944;5.382;2023-04-25T03:29:15;13.23;;;3.15;;
43650;SDS011;29247;50.944;5.382;2023-04-25T03:31:41;11.93;;;2.83;;
43650;SDS011;29247;50.944;5.382;2023-04-25T03:34:08;14.73;;;2.15;;
43650;SDS011;29247;50.944;5.382;2023-04-25T03:36:33;12.00;;;3.15;;
43650;SDS011;29247;50.944;5.382;2023-04-25T03:39:00;9.30;;;2.47;;
43650;SDS011;29247;50.944;5.382;2023-04-25T03:41:28;12.07;;;3.55;;
43650;SDS011;29247;50.944;5.382;2023-04-25T03:43:56;12.45;;;2.90;;
43650;SDS011;29247;50.944;5.382;2023-04-25T03:46:24;12.50;;;2.30;;
43650;SDS011;29247;50.944;5.382;2023-04-25T03:48:49;14.93;;;2.63;;
43650;SDS011;29247;50.944;5.382;2023-04-25T03:51:15;9.68;;;2.55;;
43650;SDS011;29247;50.944;5.382;2023-04-25T03:53:40;9.55;;;2.30;;
43650;SDS011;29247;50.944;5.382;2023-04-25T03:56:06;9.85;;;2.53;;
43650;SDS011;29247;50.944;5.382;2023-04-25T03:58:32;9.52;;;2.80;;
43650;SDS011;29247;50.944;5.382;2023-04-25T04:00:57;13.57;;;2.92;;
43650;SDS011;29247;50.944;5.382;2023-04-25T04:03:27;14.13;;;3.00;;
43650;SDS011;29247;50.944;5.382;2023-04-25T04:05:53;9.77;;;2.97;;
43650;SDS011;29247;50.944;5.382;2023-04-25T04:08:22;10.32;;;3.17;;
43650;SDS011;29247;50.944;5.382;2023-04-25T04:10:47;11.07;;;3.60;;
43650;SDS011;29247;50.944;5.382;2023-04-25T04:13:13;12.65;;;3.35;;
43650;SDS011;29247;50.944;5.382;2023-04-25T04:15:41;10.85;;;3.28;;
43650;SDS011;29247;50.944;5.382;2023-04-25T04:18:07;14.15;;;3.42;;
43650;SDS011;29247;50.944;5.382;2023-04-25T04:20:32;6.68;;;2.88;;
43650;SDS011;29247;50.944;5.382;2023-04-25T04:22:58;15.13;;;3.47;;
43650;SDS011;29247;50.944;5.382;2023-04-25T04:25:26;17.60;;;3.38;;
43650;SDS011;29247;50.944;5.382;2023-04-25T04:27:52;13.13;;;3.25;;
43650;SDS011;29247;50.944;5.382;2023-04-25T04:30:21;17.27;;;4.03;;
43650;SDS011;29247;50.944;5.382;2023-04-25T04:32:50;11.90;;;2.97;;
43650;SDS011;29247;50.944;5.382;2023-04-25T04:35:16;9.10;;;2.95;;
43650;SDS011;29247;50.944;5.382;2023-04-25T04:37:44;11.27;;;3.00;;
43650;SDS011;29247;50.944;5.382;2023-04-25T04:40:10;12.98;;;3.40;;
43650;SDS011;29247;50.944;5.382;2023-04-25T04:42:36;8.38;;;2.20;;
43650;SDS011;29247;50.944;5.382;2023-04-25T04:45:03;7.53;;;2.83;;
43650;SDS011;29247;50.944;5.382;2023-04-25T04:47:29;10.48;;;2.65;;
43650;SDS011;29247;50.944;5.382;2023-04-25T04:49:59;7.43;;;3.70;;
43650;SDS011;29247;50.944;5.382;2023-04-25T04:52:27;9.30;;;3.00;;
43650;SDS011;29247;50.944;5.382;2023-04-25T04:54:53;9.98;;;2.55;;
43650;SDS011;29247;50.944;5.382;2023-04-25T04:57:19;8.45;;;2.42;;
43650;SDS011;29247;50.944;5.382;2023-04-25T04:59:45;8.80;;;2.90;;
43650;SDS011;29247;50.944;5.382;2023-04-25T05:02:10;5.30;;;2.55;;
43650;SDS011;29247;50.944;5.382;2023-04-25T05:04:41;10.07;;;2.35;;
43650;SDS011;29247;50.944;5.382;2023-04-25T05:07:06;9.45;;;2.17;;
43650;SDS011;29247;50.944;5.382;2023-04-25T05:09:39;6.53;;;2.08;;
43650;SDS011;29247;50.944;5.382;2023-04-25T05:12:07;10.25;;;2.45;;
43650;SDS011;29247;50.944;5.382;2023-04-25T05:14:33;9.30;;;2.45;;
43650;SDS011;29247;50.944;5.382;2023-04-25T05:16:59;10.00;;;2.00;;
43650;SDS011;29247;50.944;5.382;2023-04-25T05:19:25;9.30;;;2.00;;
43650;SDS011;29247;50.944;5.382;2023-04-25T05:21:51;9.02;;;2.30;;
43650;SDS011;29247;50.944;5.382;2023-04-25T05:24:17;6.13;;;2.30;;
43650;SDS011;29247;50.944;5.382;2023-04-25T05:26:43;10.38;;;2.42;;
43650;SDS011;29247;50.944;5.382;2023-04-25T05:29:09;4.53;;;1.95;;
43650;SDS011;29247;50.944;5.382;2023-04-25T05:31:35;17.95;;;2.47;;
43650;SDS011;29247;50.944;5.382;2023-04-25T05:34:01;11.23;;;2.20;;
43650;SDS011;29247;50.944;5.382;2023-04-25T05:36:27;4.70;;;1.58;;
43650;SDS011;29247;50.944;5.382;2023-04-25T05:38:53;3.60;;;1.85;;
43650;SDS011;29247;50.944;5.382;2023-04-25T05:41:19;10.10;;;2.33;;
43650;SDS011;29247;50.944;5.382;2023-04-25T05:43:45;9.90;;;1.95;;
43650;SDS011;29247;50.944;5.382;2023-04-25T05:46:13;6.18;;;2.13;;
43650;SDS011;29247;50.944;5.382;2023-04-25T05:48:44;7.40;;;2.08;;
43650;SDS011;29247;50.944;5.382;2023-04-25T05:51:12;11.70;;;2.30;;
43650;SDS011;29247;50.944;5.382;2023-04-25T05:53:38;11.32;;;1.83;;
43650;SDS011;29247;50.944;5.382;2023-04-25T05:56:06;8.68;;;2.88;;
43650;SDS011;29247;50.944;5.382;2023-04-25T05:58:31;10.65;;;2.15;;
43650;SDS011;29247;50.944;5.382;2023-04-25T06:00:57;9.27;;;2.05;;
43650;SDS011;29247;50.944;5.382;2023-04-25T06:03:23;6.32;;;2.00;;
43650;SDS011;29247;50.944;5.382;2023-04-25T06:05:52;7.68;;;1.95;;
43650;SDS011;29247;50.944;5.382;2023-04-25T06:08:17;11.23;;;2.63;;
43650;SDS011;29247;50.944;5.382;2023-04-25T06:10:45;10.32;;;3.65;;
43650;SDS011;29247;50.944;5.382;2023-04-25T06:13:11;10.63;;;1.90;;
43650;SDS011;29247;50.944;5.382;2023-04-25T06:15:39;5.93;;;1.92;;
43650;SDS011;29247;50.944;5.382;2023-04-25T06:18:05;11.50;;;2.05;;
43650;SDS011;29247;50.944;5.382;2023-04-25T06:20:32;5.05;;;2.15;;
43650;SDS011;29247;50.944;5.382;2023-04-25T06:22:58;8.35;;;1.85;;
43650;SDS011;29247;50.944;5.382;2023-04-25T06:25:26;8.52;;;1.95;;
43650;SDS011;29247;50.944;5.382;2023-04-25T06:27:52;13.45;;;2.10;;
43650;SDS011;29247;50.944;5.382;2023-04-25T06:30:20;11.40;;;2.78;;
43650;SDS011;29247;50.944;5.382;2023-04-25T06:32:52;7.80;;;2.00;;
43650;SDS011;29247;50.944;5.382;2023-04-25T06:35:24;9.73;;;2.10;;
43650;SDS011;29247;50.944;5.382;2023-04-25T06:37:52;6.18;;;2.38;;
43650;SDS011;29247;50.944;5.382;2023-04-25T06:40:18;13.07;;;2.53;;
43650;SDS011;29247;50.944;5.382;2023-04-25T06:42:43;9.35;;;2.35;;
43650;SDS011;29247;50.944;5.382;2023-04-25T06:45:11;5.60;;;2.13;;
43650;SDS011;29247;50.944;5.382;2023-04-25T06:47:37;7.32;;;2.85;;
43650;SDS011;29247;50.944;5.382;2023-04-25T06:50:03;10.27;;;2.50;;
43650;SDS011;29247;50.944;5.382;2023-04-25T06:52:32;15.23;;;2.53;;
43650;SDS011;29247;50.944;5.382;2023-04-25T06:54:58;8.73;;;2.15;;
43650;SDS011;29247;50.944;5.382;2023-04-25T06:57:27;8.05;;;2.42;;
43650;SDS011;29247;50.944;5.382;2023-04-25T06:59:53;16.55;;;2.70;;
43650;SDS011;29247;50.944;5.382;2023-04-25T07:02:19;11.65;;;2.47;;
43650;SDS011;29247;50.944;5.382;2023-04-25T07:04:46;9.27;;;3.28;;
43650;SDS011;29247;50.944;5.382;2023-04-25T07:07:12;11.13;;;2.58;;
43650;SDS011;29247;50.944;5.382;2023-04-25T07:09:37;8.25;;;2.72;;
43650;SDS011;29247;50.944;5.382;2023-04-25T07:12:03;8.30;;;3.00;;
43650;SDS011;29247;50.944;5.382;2023-04-25T07:14:29;11.65;;;2.47;;
43650;SDS011;29247;50.944;5.382;2023-04-25T07:16:55;8.05;;;2.10;;
43650;SDS011;29247;50.944;5.382;2023-04-25T07:19:23;19.20;;;3.25;;
43650;SDS011;29247;50.944;5.382;2023-04-25T07:21:51;14.05;;;2.85;;
43650;SDS011;29247;50.944;5.382;2023-04-25T07:24:22;11.68;;;2.70;;
43650;SDS011;29247;50.944;5.382;2023-04-25T07:26:50;13.40;;;2.30;;
43650;SDS011;29247;50.944;5.382;2023-04-25T07:29:18;9.45;;;2.83;;
43650;SDS011;29247;50.944;5.382;2023-04-25T07:31:46;7.60;;;2.85;;
43650;SDS011;29247;50.944;5.382;2023-04-25T07:34:11;9.13;;;2.70;;
43650;SDS011;29247;50.944;5.382;2023-04-25T07:36:37;13.15;;;2.17;;
43650;SDS011;29247;50.944;5.382;2023-04-25T07:39:06;11.57;;;3.15;;
43650;SDS011;29247;50.944;5.382;2023-04-25T07:41:32;10.20;;;2.15;;
43650;SDS011;29247;50.944;5.382;2023-04-25T07:44:03;9.38;;;2.45;;
43650;SDS011;29247;50.944;5.382;2023-04-25T07:46:29;9.73;;;2.08;;
43650;SDS011;29247;50.944;5.382;2023-04-25T07:48:58;6.03;;;2.05;;
43650;SDS011;29247;50.944;5.382;2023-04-25T07:51:26;6.93;;;2.22;;
43650;SDS011;29247;50.944;5.382;2023-04-25T07:53:55;13.30;;;2.20;;
43650;SDS011;29247;50.944;5.382;2023-04-25T07:56:21;9.40;;;1.75;;
43650;SDS011;29247;50.944;5.382;2023-04-25T07:58:47;11.88;;;2.00;;
43650;SDS011;29247;50.944;5.382;2023-04-25T08:01:12;9.13;;;1.60;;
43650;SDS011;29247;50.944;5.382;2023-04-25T08:03:44;5.68;;;1.63;;
43650;SDS011;29247;50.944;5.382;2023-04-25T08:06:09;5.38;;;1.40;;
43650;SDS011;29247;50.944;5.382;2023-04-25T08:08:40;7.00;;;1.20;;
43650;SDS011;29247;50.944;5.382;2023-04-25T08:11:06;6.95;;;1.50;;
43650;SDS011;29247;50.944;5.382;2023-04-25T08:13:34;6.97;;;1.70;;
43650;SDS011;29247;50.944;5.382;2023-04-25T08:16:00;8.70;;;1.73;;
43650;SDS011;29247;50.944;5.382;2023-04-25T08:18:25;8.05;;;1.70;;
43650;SDS011;29247;50.944;5.382;2023-04-25T08:20:51;8.25;;;1.73;;
43650;SDS011;29247;50.944;5.382;2023-04-25T08:23:17;5.88;;;1.42;;
43650;SDS011;29247;50.944;5.382;2023-04-25T08:25:42;3.92;;;1.27;;
43650;SDS011;29247;50.944;5.382;2023-04-25T08:28:08;8.65;;;2.60;;
43650;SDS011;29247;50.944;5.382;2023-04-25T08:30:35;5.13;;;1.25;;
43650;SDS011;29247;50.944;5.382;2023-04-25T08:33:03;4.72;;;1.20;;
43650;SDS011;29247;50.944;5.382;2023-04-25T08:35:30;5.38;;;1.40;;
43650;SDS011;29247;50.944;5.382;2023-04-25T08:37:58;11.00;;;1.50;;
43650;SDS011;29247;50.944;5.382;2023-04-25T08:40:26;6.78;;;1.33;;
43650;SDS011;29247;50.944;5.382;2023-04-25T08:42:55;6.10;;;1.30;;
43650;SDS011;29247;50.944;5.382;2023-04-25T08:45:26;4.72;;;1.65;;
43650;SDS011;29247;50.944;5.382;2023-04-25T08:47:53;5.55;;;1.20;;
43650;SDS011;29247;50.944;5.382;2023-04-25T08:50:24;5.47;;;1.40;;
43650;SDS011;29247;50.944;5.382;2023-04-25T08:52:51;3.20;;;1.35;;
43650;SDS011;29247;50.944;5.382;2023-04-25T08:55:26;6.55;;;1.35;;
43650;SDS011;29247;50.944;5.382;2023-04-25T08:57:53;9.27;;;1.25;;
43650;SDS011;29247;50.944;5.382;2023-04-25T09:00:21;7.72;;;1.77;;
43650;SDS011;29247;50.944;5.382;2023-04-25T09:02:47;5.10;;;1.45;;
43650;SDS011;29247;50.944;5.382;2023-04-25T09:05:13;4.40;;;1.40;;
43650;SDS011;29247;50.944;5.382;2023-04-25T09:07:44;9.57;;;2.03;;
43650;SDS011;29247;50.944;5.382;2023-04-25T09:10:10;10.82;;;2.53;;
43650;SDS011;29247;50.944;5.382;2023-04-25T09:12:36;5.55;;;1.90;;
43650;SDS011;29247;50.944;5.382;2023-04-25T09:17:33;9.27;;;2.75;;
43650;SDS011;29247;50.944;5.382;2023-04-25T09:23:04;7.28;;;2.50;;
43650;SDS011;29247;50.944;5.382;2023-04-25T09:25:35;5.97;;;2.45;;
43650;SDS011;29247;50.944;5.382;2023-04-25T09:28:04;9.13;;;2.75;;
43650;SDS011;29247;50.944;5.382;2023-04-25T09:30:34;6.70;;;2.70;;
43650;SDS011;29247;50.944;5.382;2023-04-25T09:33:05;10.02;;;3.17;;
43650;SDS011;29247;50.944;5.382;2023-04-25T09:35:37;4.65;;;1.67;;
43650;SDS011;29247;50.944;5.382;2023-04-25T09:38:08;7.63;;;1.85;;
43650;SDS011;29247;50.944;5.382;2023-04-25T09:40:39;7.97;;;1.80;;
43650;SDS011;29247;50.944;5.382;2023-04-25T09:43:09;6.50;;;2.10;;
43650;SDS011;29247;50.944;5.382;2023-04-25T09:45:42;6.32;;;1.38;;
43650;SDS011;29247;50.944;5.382;2023-04-25T09:48:22;3.42;;;1.75;;
43650;SDS011;29247;50.944;5.382;2023-04-25T09:53:41;2.58;;;1.17;;
43650;SDS011;29247;50.944;5.382;2023-04-25T09:56:09;2.70;;;1.42;;
43650;SDS011;29247;50.944;5.382;2023-04-25T09:58:37;2.90;;;1.50;;
43650;SDS011;29247;50.944;5.382;2023-04-25T10:01:06;5.30;;;1.70;;
43650;SDS011;29247;50.944;5.382;2023-04-25T10:03:36;7.50;;;1.42;;
43650;SDS011;29247;50.944;5.382;2023-04-25T10:06:07;5.10;;;1.67;;
43650;SDS011;29247;50.944;5.382;2023-04-25T10:08:35;3.58;;;1.50;;
43650;SDS011;29247;50.944;5.382;2023-04-25T10:11:03;2.30;;;1.17;;
43650;SDS011;29247;50.944;5.382;2023-04-25T10:13:30;4.05;;;1.15;;
43650;SDS011;29247;50.944;5.382;2023-04-25T10:16:00;4.20;;;1.20;;
43650;SDS011;29247;50.944;5.382;2023-04-25T10:18:30;4.72;;;1.50;;
43650;SDS011;29247;50.944;5.382;2023-04-25T10:21:01;5.75;;;1.27;;
43650;SDS011;29247;50.944;5.382;2023-04-25T10:23:32;6.60;;;1.50;;
43650;SDS011;29247;50.944;5.382;2023-04-25T10:26:04;4.32;;;1.25;;
43650;SDS011;29247;50.944;5.382;2023-04-25T10:28:33;2.47;;;1.17;;
43650;SDS011;29247;50.944;5.382;2023-04-25T10:31:26;3.20;;;1.30;;
43650;SDS011;29247;50.944;5.382;2023-04-25T10:33:54;7.05;;;1.73;;
43650;SDS011;29247;50.944;5.382;2023-04-25T10:36:22;6.22;;;1.58;;
43650;SDS011;29247;50.944;5.382;2023-04-25T10:38:50;7.70;;;1.77;;
43650;SDS011;29247;50.944;5.382;2023-04-25T10:41:19;5.00;;;1.80;;
43650;SDS011;29247;50.944;5.382;2023-04-25T10:43:47;3.42;;;1.50;;
43650;SDS011;29247;50.944;5.382;2023-04-25T10:46:24;5.50;;;1.88;;
43650;SDS011;29247;50.944;5.382;2023-04-25T10:49:03;4.28;;;1.30;;
43650;SDS011;29247;50.944;5.382;2023-04-25T10:51:32;6.15;;;1.70;;
43650;SDS011;29247;50.944;5.382;2023-04-25T11:01:41;3.80;;;0.88;;
43650;SDS011;29247;50.944;5.382;2023-04-25T11:04:20;3.92;;;0.82;;
43650;SDS011;29247;50.944;5.382;2023-04-25T11:09:41;5.55;;;1.02;;
43650;SDS011;29247;50.944;5.382;2023-04-25T11:12:07;2.13;;;0.70;;
43650;SDS011;29247;50.944;5.382;2023-04-25T11:14:36;5.68;;;1.10;;
43650;SDS011;29247;50.944;5.382;2023-04-25T11:17:02;1.95;;;0.90;;
43650;SDS011;29247;50.944;5.382;2023-04-25T11:19:28;4.10;;;1.20;;
43650;SDS011;29247;50.944;5.382;2023-04-25T11:21:57;6.43;;;1.20;;
43650;SDS011;29247;50.944;5.382;2023-04-25T11:24:31;2.75;;;1.40;;
43650;SDS011;29247;50.944;5.382;2023-04-25T11:27:01;4.95;;;1.10;;
43650;SDS011;29247;50.944;5.382;2023-04-25T11:29:31;4.47;;;0.98;;
43650;SDS011;29247;50.944;5.382;2023-04-25T11:32:03;1.42;;;0.82;;
43650;SDS011;29247;50.944;5.382;2023-04-25T11:34:32;3.88;;;1.00;;
43650;SDS011;29247;50.944;5.382;2023-04-25T11:36:59;8.48;;;1.00;;
43650;SDS011;29247;50.944;5.382;2023-04-25T11:39:27;1.30;;;0.90;;
43650;SDS011;29247;50.944;5.382;2023-04-25T11:41:55;3.05;;;1.13;;
43650;SDS011;29247;50.944;5.382;2023-04-25T11:44:28;3.00;;;0.88;;
43650;SDS011;29247;50.944;5.382;2023-04-25T11:46:58;5.32;;;1.02;;
43650;SDS011;29247;50.944;5.382;2023-04-25T11:49:30;4.18;;;1.00;;
43650;SDS011;29247;50.944;5.382;2023-04-25T11:51:57;4.18;;;1.00;;
43650;SDS011;29247;50.944;5.382;2023-04-25T11:54:22;3.75;;;0.90;;
43650;SDS011;29247;50.944;5.382;2023-04-25T11:56:48;1.92;;;0.80;;
43650;SDS011;29247;50.944;5.382;2023-04-25T11:59:16;5.72;;;1.30;;
43650;SDS011;29247;50.944;5.382;2023-04-25T12:01:49;5.35;;;1.02;;
43650;SDS011;29247;50.944;5.382;2023-04-25T12:04:21;6.47;;;0.90;;
43650;SDS011;29247;50.944;5.382;2023-04-25T12:06:50;5.70;;;1.20;;
43650;SDS011;29247;50.944;5.382;2023-04-25T12:09:21;1.80;;;1.02;;
43650;SDS011;29247;50.944;5.382;2023-04-25T12:11:54;3.03;;;1.00;;
43650;SDS011;29247;50.944;5.382;2023-04-25T12:14:22;4.10;;;1.00;;
43650;SDS011;29247;50.944;5.382;2023-04-25T12:16:49;4.50;;;0.85;;
43650;SDS011;29247;50.944;5.382;2023-04-25T12:19:16;3.80;;;1.15;;
43650;SDS011;29247;50.944;5.382;2023-04-25T12:21:43;1.77;;;0.82;;
43650;SDS011;29247;50.944;5.382;2023-04-25T12:24:15;3.25;;;1.00;;
43650;SDS011;29247;50.944;5.382;2023-04-25T12:29:17;3.15;;;1.17;;
43650;SDS011;29247;50.944;5.382;2023-04-25T12:31:43;4.68;;;1.60;;
43650;SDS011;29247;50.944;5.382;2023-04-25T12:34:10;4.68;;;1.25;;
43650;SDS011;29247;50.944;5.382;2023-04-25T12:36:39;6.70;;;1.00;;
43650;SDS011;29247;50.944;5.382;2023-04-25T12:39:07;3.28;;;0.93;;
43650;SDS011;29247;50.944;5.382;2023-04-25T12:41:33;5.45;;;1.08;;
43650;SDS011;29247;50.944;5.382;2023-04-25T12:44:02;3.22;;;1.10;;
43650;SDS011;29247;50.944;5.382;2023-04-25T12:46:33;2.15;;;1.10;;
43650;SDS011;29247;50.944;5.382;2023-04-25T12:48:59;1.95;;;1.17;;
43650;SDS011;29247;50.944;5.382;2023-04-25T12:51:25;5.15;;;0.98;;
43650;SDS011;29247;50.944;5.382;2023-04-25T12:53:53;3.38;;;1.13;;
43650;SDS011;29247;50.944;5.382;2023-04-25T12:56:24;4.60;;;1.10;;
43650;SDS011;29247;50.944;5.382;2023-04-25T13:01:18;3.40;;;1.10;;
43650;SDS011;29247;50.944;5.382;2023-04-25T13:03:44;3.50;;;1.25;;
43650;SDS011;29247;50.944;5.382;2023-04-25T13:06:16;2.38;;;1.13;;
43650;SDS011;29247;50.944;5.382;2023-04-25T13:08:44;1.85;;;0.80;;
43650;SDS011;29247;50.944;5.382;2023-04-25T13:11:11;2.67;;;1.00;;
43650;SDS011;29247;50.944;5.382;2023-04-25T13:13:40;3.50;;;0.98;;
43650;SDS011;29247;50.944;5.382;2023-04-25T13:16:06;2.13;;;0.88;;
43650;SDS011;29247;50.944;5.382;2023-04-25T13:18:33;1.52;;;1.00;;
43650;SDS011;29247;50.944;5.382;2023-04-25T13:21:04;4.75;;;0.90;;
43650;SDS011;29247;50.944;5.382;2023-04-25T13:23:30;3.65;;;1.00;;
43650;SDS011;29247;50.944;5.382;2023-04-25T13:25:56;4.47;;;1.05;;
43650;SDS011;29247;50.944;5.382;2023-04-25T13:28:26;2.22;;;1.00;;
43650;SDS011;29247;50.944;5.382;2023-04-25T13:30:55;4.70;;;1.33;;
43650;SDS011;29247;50.944;5.382;2023-04-25T13:33:21;2.08;;;1.00;;
43650;SDS011;29247;50.944;5.382;2023-04-25T13:35:49;5.07;;;1.45;;
43650;SDS011;29247;50.944;5.382;2023-04-25T13:38:22;2.67;;;1.15;;
43650;SDS011;29247;50.944;5.382;2023-04-25T13:40:51;2.60;;;1.30;;
43650;SDS011;29247;50.944;5.382;2023-04-25T13:43:20;8.02;;;1.90;;
43650;SDS011;29247;50.944;5.382;2023-04-25T13:45:47;3.70;;;1.17;;
43650;SDS011;29247;50.944;5.382;2023-04-25T13:48:14;5.35;;;1.63;;
43650;SDS011;29247;50.944;5.382;2023-04-25T13:50:41;3.33;;;1.00;;
43650;SDS011;29247;50.944;5.382;2023-04-25T13:53:07;2.67;;;1.23;;
43650;SDS011;29247;50.944;5.382;2023-04-25T13:55:34;4.65;;;1.17;;
43650;SDS011;29247;50.944;5.382;2023-04-25T13:58:03;2.83;;;1.83;;
43650;SDS011;29247;50.944;5.382;2023-04-25T14:00:34;3.67;;;1.00;;
43650;SDS011;29247;50.944;5.382;2023-04-25T14:03:03;5.18;;;1.10;;
43650;SDS011;29247;50.944;5.382;2023-04-25T14:05:32;3.53;;;1.05;;
43650;SDS011;29247;50.944;5.382;2023-04-25T14:08:03;5.40;;;1.15;;
43650;SDS011;29247;50.944;5.382;2023-04-25T14:10:42;6.85;;;1.10;;
43650;SDS011;29247;50.944;5.382;2023-04-25T14:13:08;6.00;;;0.93;;
43650;SDS011;29247;50.944;5.382;2023-04-25T14:15:39;2.92;;;0.98;;
43650;SDS011;29247;50.944;5.382;2023-04-25T14:18:08;7.53;;;1.00;;
43650;SDS011;29247;50.944;5.382;2023-04-25T14:20:36;1.42;;;0.70;;
43650;SDS011;29247;50.944;5.382;2023-04-25T14:23:05;6.80;;;1.20;;
43650;SDS011;29247;50.944;5.382;2023-04-25T14:25:32;3.50;;;1.20;;
43650;SDS011;29247;50.944;5.382;2023-04-25T14:27:59;1.88;;;0.85;;
43650;SDS011;29247;50.944;5.382;2023-04-25T14:30:27;2.28;;;0.80;;
43650;SDS011;29247;50.944;5.382;2023-04-25T14:32:53;1.98;;;0.80;;
43650;SDS011;29247;50.944;5.382;2023-04-25T14:35:19;1.70;;;0.80;;
43650;SDS011;29247;50.944;5.382;2023-04-25T14:37:50;3.45;;;0.90;;
43650;SDS011;29247;50.944;5.382;2023-04-25T14:40:18;3.92;;;0.70;;
43650;SDS011;29247;50.944;5.382;2023-04-25T14:42:47;7.68;;;0.77;;
43650;SDS011;29247;50.944;5.382;2023-04-25T14:45:13;5.03;;;1.20;;
43650;SDS011;29247;50.944;5.382;2023-04-25T14:47:41;1.98;;;0.85;;
43650;SDS011;29247;50.944;5.382;2023-04-25T14:50:07;2.03;;;1.08;;
43650;SDS011;29247;50.944;5.382;2023-04-25T14:52:39;2.30;;;0.90;;
43650;SDS011;29247;50.944;5.382;2023-04-25T14:55:05;2.75;;;0.90;;
43650;SDS011;29247;50.944;5.382;2023-04-25T14:57:32;2.03;;;1.17;;
43650;SDS011;29247;50.944;5.382;2023-04-25T14:59:59;6.40;;;1.30;;
43650;SDS011;29247;50.944;5.382;2023-04-25T15:02:25;2.33;;;1.00;;
43650;SDS011;29247;50.944;5.382;2023-04-25T15:04:52;2.70;;;0.93;;
43650;SDS011;29247;50.944;5.382;2023-04-25T15:07:18;4.55;;;0.80;;
43650;SDS011;29247;50.944;5.382;2023-04-25T15:09:47;1.83;;;0.90;;
43650;SDS011;29247;50.944;5.382;2023-04-25T15:12:16;1.98;;;0.90;;
43650;SDS011;29247;50.944;5.382;2023-04-25T15:14:41;4.97;;;0.88;;
43650;SDS011;29247;50.944;5.382;2023-04-25T15:17:07;5.40;;;1.10;;